createdAt,value
2022-09-09T00:01:15.210Z,1.35
2022-09-09T00:06:36.422Z,0.75
2022-09-09T00:09:13.926Z,0.47
2022-09-09T00:11:52.869Z,0.70
2022-09-09T00:14:49.103Z,0.68
2022-09-09T00:17:34.231Z,1.17
2022-09-09T00:20:10.607Z,0.68
2022-09-09T00:22:41.011Z,0.75
2022-09-09T00:25:25.898Z,0.65
2022-09-09T00:27:52.434Z,0.60
2022-09-09T00:30:23.450Z,0.73
2022-09-09T00:32:59.126Z,0.63
2022-09-09T00:35:28.643Z,0.80
2022-09-09T00:37:59.150Z,0.80
2022-09-09T00:40:39.597Z,0.80
2022-09-09T00:43:33.757Z,0.90
2022-09-09T00:46:19.302Z,1.08
2022-09-09T00:48:48.865Z,1.10
2022-09-09T00:51:34.292Z,1.23
2022-09-09T00:54:28.134Z,1.20
2022-09-09T00:57:20.837Z,1.20
2022-09-09T01:00:18.419Z,1.00
2022-09-09T01:03:00.144Z,0.98
2022-09-09T01:05:36.089Z,0.93
2022-09-09T01:08:12.952Z,0.90
2022-09-09T01:10:50.667Z,1.25
2022-09-09T01:13:31.439Z,0.70
2022-09-09T01:16:06.760Z,0.80
2022-09-09T01:18:38.192Z,0.80
2022-09-09T01:21:16.792Z,1.15
2022-09-09T01:23:50.151Z,1.10
2022-09-09T01:26:22.463Z,0.88
2022-09-09T01:28:53.504Z,0.80
2022-09-09T01:31:24.268Z,0.98
2022-09-09T01:33:51.176Z,1.10
2022-09-09T01:36:27.225Z,1.52
2022-09-09T01:38:54.395Z,0.90
2022-09-09T01:41:20.973Z,0.90
2022-09-09T01:43:48.603Z,1.00
2022-09-09T01:46:15.823Z,0.93
2022-09-09T01:48:43.707Z,1.05
2022-09-09T01:51:14.154Z,1.08
2022-09-09T01:53:43.839Z,1.55
2022-09-09T01:56:39.599Z,1.63
2022-09-09T01:59:25.448Z,0.90
2022-09-09T02:02:19.134Z,1.10
2022-09-09T02:04:49.459Z,0.77
2022-09-09T02:07:42.229Z,1.00
2022-09-09T02:10:18.569Z,1.20
2022-09-09T02:12:49.791Z,1.20
2022-09-09T02:15:33.818Z,1.10
2022-09-09T02:18:04.925Z,0.90
2022-09-09T02:20:35.179Z,0.90
2022-09-09T02:23:03.668Z,0.93
2022-09-09T02:25:31.312Z,1.00
2022-09-09T02:28:01.262Z,1.02
2022-09-09T02:30:30.987Z,1.20
2022-09-09T02:32:59.822Z,1.27
2022-09-09T02:35:29.251Z,1.02
2022-09-09T02:38:00.441Z,1.02
2022-09-09T02:40:27.033Z,1.02
2022-09-09T02:42:55.874Z,0.80
2022-09-09T02:45:29.707Z,0.77
2022-09-09T02:48:20.964Z,1.13
2022-09-09T02:51:13.644Z,0.80
2022-09-09T02:54:14.463Z,1.10
2022-09-09T02:56:46.949Z,1.00
2022-09-09T02:59:13.840Z,1.23
2022-09-09T03:01:41.138Z,0.80
2022-09-09T03:04:07.671Z,1.20
2022-09-09T03:06:34.481Z,1.10
2022-09-09T03:09:02.755Z,0.90
2022-09-09T03:11:29.619Z,1.00
2022-09-09T03:13:57.075Z,0.90
2022-09-09T03:16:24.506Z,1.00
2022-09-09T03:18:51.444Z,0.70
2022-09-09T03:21:17.925Z,1.08
2022-09-09T03:23:45.906Z,0.90
2022-09-09T03:26:12.416Z,1.00
2022-09-09T03:28:38.888Z,0.82
2022-09-09T03:31:06.592Z,1.00
2022-09-09T03:33:33.066Z,1.13
2022-09-09T03:35:59.543Z,1.27
2022-09-09T03:38:26.566Z,1.10
2022-09-09T03:40:56.519Z,0.80
2022-09-09T03:43:24.151Z,1.05
2022-09-09T03:45:50.929Z,1.02
2022-09-09T03:48:18.515Z,1.25
2022-09-09T03:50:50.148Z,0.90
2022-09-09T03:53:18.332Z,1.00
2022-09-09T03:55:49.179Z,0.68
2022-09-09T03:58:16.865Z,0.80
2022-09-09T04:00:45.993Z,1.03
2022-09-09T04:03:13.116Z,1.33
2022-09-09T04:05:43.358Z,1.25
2022-09-09T04:08:10.008Z,1.15
2022-09-09T04:10:38.176Z,1.58
2022-09-09T04:13:05.466Z,1.83
2022-09-09T04:15:32.518Z,1.30
2022-09-09T04:17:59.071Z,1.13
2022-09-09T04:20:25.622Z,1.08
2022-09-09T04:22:52.088Z,1.33
2022-09-09T04:25:18.571Z,1.33
2022-09-09T04:27:45.169Z,1.13
2022-09-09T04:30:13.211Z,1.20
2022-09-09T04:32:39.697Z,0.90
2022-09-09T04:35:06.348Z,0.90
2022-09-09T04:37:32.859Z,1.00
2022-09-09T04:40:00.448Z,1.30
2022-09-09T04:42:27.036Z,1.30
2022-09-09T04:44:53.490Z,1.50
2022-09-09T04:47:19.951Z,1.52
2022-09-09T04:49:46.632Z,1.20
2022-09-09T04:52:13.364Z,2.35
2022-09-09T04:54:39.955Z,1.42
2022-09-09T04:57:06.431Z,1.80
2022-09-09T04:59:32.882Z,1.88
2022-09-09T05:02:02.013Z,1.23
2022-09-09T05:04:29.764Z,1.30
2022-09-09T05:06:56.896Z,1.30
2022-09-09T05:09:23.470Z,1.40
2022-09-09T05:11:49.928Z,1.40
2022-09-09T05:14:16.459Z,1.67
2022-09-09T05:16:45.383Z,1.80
2022-09-09T05:19:12.661Z,1.33
2022-09-09T05:21:39.348Z,1.58
2022-09-09T05:24:05.909Z,2.00
2022-09-09T05:26:33.417Z,1.35
2022-09-09T05:29:01.392Z,1.20
2022-09-09T05:31:29.358Z,1.40
2022-09-09T05:33:55.895Z,1.75
2022-09-09T05:36:23.579Z,1.50
2022-09-09T05:38:50.943Z,1.37
2022-09-09T05:41:18.502Z,1.30
2022-09-09T05:43:46.564Z,1.65
2022-09-09T05:46:15.268Z,1.00
2022-09-09T05:48:53.162Z,1.20
2022-09-09T05:51:22.769Z,1.35
2022-09-09T05:53:49.850Z,1.40
2022-09-09T05:56:26.174Z,1.25
2022-09-09T05:58:54.925Z,1.17
2022-09-09T06:01:33.717Z,1.13
2022-09-09T06:04:00.605Z,1.30
2022-09-09T06:06:31.152Z,1.33
2022-09-09T06:08:59.126Z,1.20
2022-09-09T06:11:33.594Z,1.20
2022-09-09T06:14:00.704Z,1.40
2022-09-09T06:16:28.915Z,1.90
2022-09-09T06:18:57.393Z,1.40
2022-09-09T06:21:27.224Z,1.10
2022-09-09T06:23:57.812Z,1.50
2022-09-09T06:26:37.973Z,1.00
2022-09-09T06:29:05.787Z,1.17
2022-09-09T06:31:35.481Z,1.25
2022-09-09T06:34:03.091Z,1.50
2022-09-09T06:36:32.187Z,1.27
2022-09-09T06:38:59.222Z,1.42
2022-09-09T06:41:29.515Z,1.40
2022-09-09T06:43:59.380Z,1.92
2022-09-09T06:46:28.964Z,1.23
2022-09-09T06:48:57.059Z,1.23
2022-09-09T06:51:24.956Z,1.20
2022-09-09T06:53:54.550Z,1.30
2022-09-09T06:56:32.696Z,1.67
2022-09-09T06:59:03.504Z,1.55
2022-09-09T07:01:32.789Z,1.27
2022-09-09T07:04:00.912Z,1.25
2022-09-09T07:06:29.993Z,0.93
2022-09-09T07:09:01.986Z,1.80
2022-09-09T07:11:31.346Z,1.63
2022-09-09T07:13:59.934Z,1.70
2022-09-09T07:18:53.685Z,1.30
2022-09-09T07:21:21.933Z,1.70
2022-09-09T07:23:48.442Z,1.38
2022-09-09T07:26:18.123Z,1.10
2022-09-09T07:28:44.591Z,1.30
2022-09-09T07:31:17.537Z,1.05
2022-09-09T07:33:45.404Z,1.20
2022-09-09T07:36:24.974Z,1.30
2022-09-09T07:38:54.310Z,1.23
2022-09-09T07:41:29.666Z,0.90
2022-09-09T07:43:56.144Z,0.90
2022-09-09T07:46:25.404Z,1.40
2022-09-09T07:48:56.936Z,1.20
2022-09-09T07:51:29.287Z,0.93
2022-09-09T07:53:59.036Z,1.10
2022-09-09T07:56:27.087Z,1.10
2022-09-09T07:58:55.674Z,1.38
2022-09-09T08:03:56.711Z,1.00
2022-09-09T08:06:23.353Z,1.20
2022-09-09T08:08:52.467Z,1.10
2022-09-09T08:11:19.607Z,1.00
2022-09-09T08:13:48.064Z,1.40
2022-09-09T08:16:19.148Z,1.15
2022-09-09T08:18:45.765Z,1.17
2022-09-09T08:21:15.758Z,0.85
2022-09-09T08:23:43.658Z,1.20
2022-09-09T08:26:16.122Z,1.17
2022-09-09T08:28:43.606Z,1.25
2022-09-09T08:31:32.423Z,1.13
2022-09-09T08:34:04.469Z,1.23
2022-09-09T08:36:36.911Z,1.00
2022-09-09T08:39:06.050Z,1.00
2022-09-09T08:41:44.572Z,1.33
2022-09-09T08:44:32.020Z,1.20
2022-09-09T08:47:34.102Z,1.63
2022-09-09T08:50:07.526Z,1.27
2022-09-09T08:53:02.617Z,1.80
2022-09-09T08:55:45.622Z,1.08
2022-09-09T08:58:25.871Z,1.40
2022-09-09T09:00:55.332Z,1.38
2022-09-09T09:03:40.382Z,1.30
2022-09-09T09:06:28.136Z,2.40
2022-09-09T09:09:20.615Z,1.23
2022-09-09T09:11:49.562Z,1.27
2022-09-09T09:14:26.294Z,1.27
2022-09-09T09:17:00.398Z,1.08
2022-09-09T09:19:29.532Z,1.08
2022-09-09T09:22:18.999Z,2.22
2022-09-09T09:25:06.105Z,1.00
2022-09-09T09:27:46.309Z,1.25
2022-09-09T09:30:29.014Z,1.33
2022-09-09T09:33:07.527Z,1.63
2022-09-09T09:35:38.579Z,1.00
2022-09-09T09:41:07.620Z,1.35
2022-09-09T09:43:36.749Z,1.20
2022-09-09T09:46:20.218Z,1.05
2022-09-09T09:48:57.971Z,1.02
2022-09-09T09:51:26.043Z,1.10
2022-09-09T09:53:54.797Z,1.20
2022-09-09T09:56:33.462Z,2.60
2022-09-09T09:59:00.024Z,1.45
2022-09-09T10:01:30.623Z,1.13
2022-09-09T10:04:17.373Z,1.13
2022-09-09T10:06:43.895Z,1.10
2022-09-09T10:09:29.495Z,0.98
2022-09-09T10:12:07.962Z,1.52
2022-09-09T10:14:59.934Z,1.00
2022-09-09T10:18:05.044Z,1.17
2022-09-09T10:20:38.596Z,1.00
2022-09-09T10:23:38.271Z,1.30
2022-09-09T10:26:22.980Z,1.27
2022-09-09T10:29:09.740Z,1.27
2022-09-09T10:31:45.196Z,1.20
2022-09-09T10:34:32.463Z,1.20
2022-09-09T10:36:59.517Z,1.33
2022-09-09T10:39:40.728Z,1.13
2022-09-09T10:42:13.319Z,1.38
2022-09-09T10:44:39.833Z,0.90
2022-09-09T10:47:17.109Z,0.95
2022-09-09T10:50:12.924Z,0.70
2022-09-09T10:52:39.324Z,1.20
2022-09-09T10:55:20.847Z,1.10
2022-09-09T10:57:55.117Z,1.20
2022-09-09T11:00:32.238Z,1.42
2022-09-09T11:03:03.174Z,1.10
2022-09-09T11:05:42.253Z,0.88
2022-09-09T11:08:18.792Z,1.05
2022-09-09T11:10:57.724Z,0.93
2022-09-09T11:13:38.438Z,1.42
2022-09-09T11:16:39.438Z,1.25
2022-09-09T11:19:18.602Z,1.20
2022-09-09T11:21:48.387Z,1.17
2022-09-09T11:24:30.472Z,1.20
2022-09-09T11:27:04.047Z,0.88
2022-09-09T11:30:04.170Z,0.77
2022-09-09T11:33:15.545Z,1.42
2022-09-09T11:36:04.436Z,1.00
2022-09-09T11:38:46.774Z,1.08
2022-09-09T11:41:20.869Z,1.80
2022-09-09T11:43:54.533Z,1.20
2022-09-09T11:46:34.676Z,1.00
2022-09-09T11:49:04.575Z,0.90
2022-09-09T11:51:33.450Z,1.25
2022-09-09T11:54:03.669Z,1.40
2022-09-09T11:56:45.581Z,1.10
2022-09-09T11:59:25.561Z,1.83
2022-09-09T12:02:03.203Z,0.98
2022-09-09T12:04:34.112Z,1.17
2022-09-09T12:07:09.848Z,0.80
2022-09-09T12:09:53.688Z,1.00
2022-09-09T12:12:23.214Z,1.00
2022-09-09T12:14:58.821Z,0.82
2022-09-09T12:17:27.103Z,0.88
2022-09-09T12:20:09.599Z,1.02
2022-09-09T12:22:44.391Z,0.98
2022-09-09T12:25:41.753Z,0.82
2022-09-09T12:28:25.838Z,1.00
2022-09-09T12:31:29.587Z,0.75
2022-09-09T12:33:56.059Z,0.88
2022-09-09T12:36:31.111Z,0.70
2022-09-09T12:39:11.777Z,0.70
2022-09-09T12:41:38.291Z,0.88
2022-09-09T12:44:09.865Z,0.50
2022-09-09T12:46:43.152Z,1.05
2022-09-09T12:49:34.971Z,0.80
2022-09-09T12:52:08.196Z,0.80
2022-09-09T12:54:37.459Z,0.60
2022-09-09T12:57:05.457Z,0.95
2022-09-09T12:59:40.353Z,0.95
2022-09-09T13:02:20.577Z,0.80
2022-09-09T13:04:47.934Z,1.05
2022-09-09T13:07:17.008Z,0.75
2022-09-09T13:09:45.482Z,1.30
2022-09-09T13:12:21.934Z,1.30
2022-09-09T13:14:52.168Z,0.88
2022-09-09T13:17:29.912Z,0.80
2022-09-09T13:19:57.410Z,0.98
2022-09-09T13:22:38.473Z,0.90
2022-09-09T13:25:22.637Z,7.82
2022-09-09T13:28:04.119Z,1.88
2022-09-09T13:30:41.924Z,1.25
2022-09-09T13:33:15.500Z,1.58
2022-09-09T13:35:48.015Z,1.23
2022-09-09T13:38:18.395Z,1.27
2022-09-09T13:40:58.611Z,1.15
2022-09-09T13:43:27.039Z,1.10
2022-09-09T13:45:57.314Z,0.80
2022-09-09T13:48:24.690Z,1.23
2022-09-09T13:51:04.118Z,1.00
2022-09-09T13:53:31.492Z,1.00
2022-09-09T13:55:59.262Z,0.93
2022-09-09T13:58:27.406Z,1.40
2022-09-09T14:00:54.954Z,1.00
2022-09-09T14:03:22.125Z,1.27
2022-09-09T14:05:48.823Z,0.85
2022-09-09T14:08:25.068Z,1.17
2022-09-09T14:10:52.294Z,1.00
2022-09-09T14:13:18.911Z,0.80
2022-09-09T14:15:45.417Z,0.90
2022-09-09T14:18:14.459Z,0.88
2022-09-09T14:20:41.311Z,1.30
2022-09-09T14:23:12.167Z,1.05
2022-09-09T14:25:41.693Z,0.82
2022-09-09T14:28:10.962Z,0.88
2022-09-09T14:30:40.417Z,1.20
2022-09-09T14:33:09.367Z,1.00
2022-09-09T14:35:36.197Z,1.30
2022-09-09T14:38:03.697Z,0.90
2022-09-09T14:40:30.520Z,0.80
2022-09-09T14:42:57.460Z,1.00
2022-09-09T14:45:25.854Z,1.08
2022-09-09T14:47:52.930Z,0.77
2022-09-09T14:50:20.577Z,1.10
2022-09-09T14:52:47.594Z,0.83
2022-09-09T14:55:14.587Z,1.08
2022-09-09T14:57:41.260Z,1.13
2022-09-09T15:00:09.637Z,0.80
2022-09-09T15:02:36.277Z,0.98
2022-09-09T15:05:02.894Z,0.80
2022-09-09T15:07:29.370Z,0.70
2022-09-09T15:09:56.282Z,0.90
2022-09-09T15:12:22.774Z,0.75
2022-09-09T15:14:49.430Z,0.95
2022-09-09T15:17:15.906Z,0.77
2022-09-09T15:19:43.069Z,0.90
2022-09-09T15:22:09.998Z,0.70
2022-09-09T15:24:36.496Z,1.00
2022-09-09T15:27:03.088Z,0.85
2022-09-09T15:29:29.661Z,0.80
2022-09-09T15:31:56.490Z,1.00
2022-09-09T15:34:23.292Z,0.80
2022-09-09T15:36:49.747Z,1.08
2022-09-09T15:39:18.287Z,1.17
2022-09-09T15:44:15.539Z,0.85
2022-09-09T15:47:00.548Z,0.82
2022-09-09T15:49:27.388Z,0.80
2022-09-09T15:51:56.344Z,1.05
2022-09-09T15:54:25.138Z,1.00
2022-09-09T15:56:59.001Z,1.38
2022-09-09T15:59:28.805Z,0.85
2022-09-09T16:01:55.977Z,1.10
2022-09-09T16:04:24.429Z,1.25
2022-09-09T16:07:02.717Z,1.15
2022-09-09T16:09:29.756Z,1.15
2022-09-09T16:12:07.372Z,0.82
2022-09-09T16:14:36.952Z,0.60
2022-09-09T16:17:06.056Z,0.55
2022-09-09T16:19:33.338Z,0.60
2022-09-09T16:21:59.835Z,0.45
2022-09-09T16:24:26.673Z,0.35
2022-09-09T16:26:55.229Z,0.50
2022-09-09T16:31:56.318Z,0.57
2022-09-09T16:34:24.338Z,0.50
2022-09-09T16:36:50.948Z,0.70
2022-09-09T16:39:19.905Z,0.90
2022-09-09T16:41:48.421Z,0.50
2022-09-09T16:46:45.212Z,1.33
2022-09-09T16:49:14.231Z,0.70
2022-09-09T16:51:43.362Z,0.95
2022-09-09T16:54:10.685Z,0.60
2022-09-09T16:56:42.154Z,0.85
2022-09-09T16:59:12.390Z,0.52
2022-09-09T17:01:41.839Z,0.70
2022-09-09T17:04:14.694Z,0.65
2022-09-09T17:06:42.378Z,0.80
2022-09-09T17:09:11.597Z,0.70
2022-09-09T17:11:39.542Z,0.80
2022-09-09T17:14:10.243Z,0.80
2022-09-09T17:16:37.749Z,0.80
2022-09-09T17:19:05.241Z,1.10
2022-09-09T17:21:33.213Z,1.88
2022-09-09T17:24:00.732Z,1.60
2022-09-09T17:26:30.120Z,1.52
2022-09-09T17:28:59.888Z,1.15
2022-09-09T17:31:28.561Z,1.55
2022-09-09T17:33:55.877Z,0.88
2022-09-09T17:36:24.850Z,1.15
2022-09-09T17:38:52.866Z,1.40
2022-09-09T17:41:26.519Z,1.38
2022-09-09T17:43:53.474Z,1.17
2022-09-09T17:46:25.925Z,1.25
2022-09-09T17:48:57.184Z,1.23
2022-09-09T17:51:28.299Z,1.80
2022-09-09T17:53:59.300Z,1.40
2022-09-09T17:56:29.158Z,1.50
2022-09-09T17:58:55.739Z,1.50
2022-09-09T18:01:28.357Z,1.90
2022-09-09T18:03:57.463Z,1.50
2022-09-09T18:06:29.514Z,1.30
2022-09-09T18:08:58.860Z,1.17
2022-09-09T18:11:28.544Z,1.20
2022-09-09T18:13:57.896Z,1.05
2022-09-09T18:16:26.791Z,1.00
2022-09-09T18:18:55.815Z,1.33
2022-09-09T18:21:23.476Z,1.30
2022-09-09T18:23:52.121Z,1.50
2022-09-09T18:26:21.779Z,1.17
2022-09-09T18:28:53.272Z,1.05
2022-09-09T18:31:23.489Z,1.50
2022-09-09T18:33:51.647Z,1.15
2022-09-09T18:36:20.773Z,1.30
2022-09-09T18:38:47.678Z,1.02
2022-09-09T18:41:18.965Z,1.00
2022-09-09T18:43:45.554Z,1.15
2022-09-09T18:46:12.829Z,1.05
2022-09-09T18:48:39.684Z,0.98
2022-09-09T18:51:08.770Z,1.35
2022-09-09T18:53:35.986Z,0.90
2022-09-09T18:56:08.388Z,1.10
2022-09-09T18:58:36.148Z,1.20
2022-09-09T19:01:06.724Z,1.35
2022-09-09T19:03:35.560Z,0.90
2022-09-09T19:06:05.076Z,1.50
2022-09-09T19:08:34.601Z,1.08
2022-09-09T19:11:02.578Z,0.80
2022-09-09T19:13:29.305Z,1.10
2022-09-09T19:15:55.829Z,0.90
2022-09-09T19:18:23.720Z,1.10
2022-09-09T19:20:50.258Z,1.00
2022-09-09T19:23:16.743Z,0.93
2022-09-09T19:25:43.231Z,1.23
2022-09-09T19:28:09.817Z,1.15
2022-09-09T19:30:36.428Z,0.90
2022-09-09T19:33:04.384Z,0.73
2022-09-09T19:35:31.435Z,1.05
2022-09-09T19:37:59.513Z,1.00
2022-09-09T19:40:26.926Z,1.02
2022-09-09T19:42:53.951Z,0.85
2022-09-09T19:45:20.507Z,0.93
2022-09-09T19:47:47.165Z,1.02
2022-09-09T19:50:13.654Z,1.20
2022-09-09T19:52:40.487Z,1.30
2022-09-09T19:55:07.208Z,0.82
2022-09-09T19:57:34.211Z,1.02
2022-09-09T20:00:00.931Z,0.90
2022-09-09T20:02:28.810Z,0.75
2022-09-09T20:04:55.423Z,1.00
2022-09-09T20:07:21.911Z,1.00
2022-09-09T20:09:48.367Z,0.90
2022-09-09T20:12:15.007Z,0.90
2022-09-09T20:14:41.766Z,1.42
2022-09-09T20:17:10.181Z,1.40
2022-09-09T20:19:36.784Z,1.13
2022-09-09T20:22:03.272Z,1.10
2022-09-09T20:24:29.756Z,1.00
2022-09-09T20:26:56.435Z,1.10
2022-09-09T20:29:22.999Z,1.20
2022-09-09T20:31:49.471Z,1.13
2022-09-09T20:34:21.779Z,1.10
2022-09-09T20:36:49.039Z,1.00
2022-09-09T20:39:18.147Z,1.08
2022-09-09T20:41:46.277Z,1.38
2022-09-09T20:44:19.212Z,1.15
2022-09-09T20:46:48.245Z,1.10
2022-09-09T20:49:17.214Z,1.38
2022-09-09T20:51:44.544Z,1.30
2022-09-09T20:54:17.133Z,1.55
2022-09-09T20:56:45.139Z,1.90
2022-09-09T20:59:14.202Z,2.42
2022-09-09T21:01:42.181Z,2.45
2022-09-09T21:04:09.784Z,2.50
2022-09-09T21:06:37.072Z,2.53
2022-09-09T21:09:03.800Z,2.30
2022-09-09T21:11:30.360Z,2.53
2022-09-09T21:13:56.918Z,2.40
2022-09-09T21:16:23.467Z,2.90
2022-09-09T21:18:50.471Z,2.25
2022-09-09T21:21:21.202Z,2.47
2022-09-09T21:23:48.869Z,2.28
2022-09-09T21:26:15.414Z,2.03
2022-09-09T21:28:41.886Z,2.03
2022-09-09T21:31:16.374Z,2.00
2022-09-09T21:33:43.188Z,1.90
2022-09-09T21:36:11.366Z,2.10
2022-09-09T21:38:40.320Z,2.38
2022-09-09T21:41:15.475Z,1.85
2022-09-09T21:43:44.241Z,2.10
2022-09-09T21:46:14.311Z,1.98
2022-09-09T21:48:40.946Z,3.03
2022-09-09T21:51:14.411Z,3.13
2022-09-09T21:53:41.241Z,3.15
2022-09-09T21:56:10.884Z,3.70
2022-09-09T21:58:37.723Z,3.70
2022-09-09T22:01:16.427Z,3.22
2022-09-09T22:03:43.823Z,3.75
2022-09-09T22:06:13.848Z,4.15
2022-09-09T22:08:40.959Z,4.07
2022-09-09T22:11:13.936Z,3.67
2022-09-09T22:13:40.870Z,4.70
2022-09-09T22:16:12.324Z,3.78
2022-09-09T22:18:39.135Z,4.47
2022-09-09T22:21:17.909Z,4.40
2022-09-09T22:23:47.713Z,3.92
2022-09-09T22:26:15.122Z,3.88
2022-09-09T22:28:41.589Z,4.00
2022-09-09T22:31:08.115Z,3.55
2022-09-09T22:33:35.069Z,3.35
2022-09-09T22:36:01.801Z,3.25
2022-09-09T22:38:28.267Z,3.03
2022-09-09T22:40:54.937Z,3.00
2022-09-09T22:43:22.778Z,2.28
2022-09-09T22:45:50.179Z,2.42
2022-09-09T22:48:16.977Z,2.88
2022-09-09T22:50:44.241Z,1.95
2022-09-09T22:53:14.413Z,2.35
2022-09-09T22:55:41.277Z,1.80
2022-09-09T22:58:07.943Z,1.90
2022-09-09T23:00:35.204Z,1.90
2022-09-09T23:03:01.714Z,2.13
2022-09-09T23:05:28.405Z,1.70
2022-09-09T23:07:58.287Z,1.95
2022-09-09T23:10:25.539Z,2.03
2022-09-09T23:12:52.407Z,1.67
2022-09-09T23:15:19.870Z,2.00
2022-09-09T23:17:46.441Z,1.75
2022-09-09T23:20:12.989Z,1.90
2022-09-09T23:22:40.504Z,1.70
2022-09-09T23:25:07.850Z,2.30
2022-09-09T23:27:37.325Z,1.83
2022-09-09T23:30:07.037Z,2.05
2022-09-09T23:32:33.640Z,1.80
2022-09-09T23:35:00.349Z,1.73
2022-09-09T23:37:26.831Z,1.73
2022-09-09T23:39:54.410Z,1.67
2022-09-09T23:42:20.891Z,1.90
2022-09-09T23:44:47.534Z,2.00
2022-09-09T23:47:14.633Z,2.10
2022-09-09T23:49:41.154Z,2.00
2022-09-09T23:52:07.644Z,1.67
2022-09-09T23:54:34.921Z,2.08
2022-09-09T23:57:03.074Z,1.65
2022-09-09T23:59:30.924Z,1.67
